createdAt,value
2022-09-05T00:01:59.561Z,24.65415
2022-09-05T00:07:00.469Z,24.69862
2022-09-05T00:12:01.431Z,24.83819
2022-09-05T00:17:02.637Z,24.87
2022-09-05T00:24:33.160Z,24.91292
2022-09-05T00:30:23.517Z,24.89096
2022-09-05T00:36:07.480Z,25.04172
2022-09-05T00:41:08.362Z,25.15562
2022-09-05T00:46:09.314Z,25.26452
2022-09-05T00:51:10.243Z,25.3978
2022-09-05T00:56:11.155Z,25.56102
2022-09-05T01:01:21.150Z,25.59783
2022-09-05T01:06:22.660Z,25.63292
2022-09-05T01:11:23.600Z,25.6837
2022-09-05T01:16:24.788Z,25.6937
2022-09-05T01:21:26.974Z,25.69539
2022-09-05T01:26:28.797Z,25.70832
2022-09-05T01:31:29.767Z,25.60878
2022-09-05T01:36:30.736Z,25.59026
2022-09-05T01:41:31.723Z,25.5451
2022-09-05T01:46:32.735Z,25.58457
2022-09-05T01:51:35.270Z,25.62978
2022-09-05T02:01:37.230Z,25.54988
2022-09-05T02:06:38.264Z,25.57568
2022-09-05T02:11:39.180Z,25.64988
2022-09-05T02:16:40.128Z,25.74266
2022-09-05T02:21:56.706Z,25.87934
2022-09-05T02:26:58.333Z,25.93982
2022-09-05T02:31:59.328Z,25.96423
2022-09-05T02:37:00.267Z,26.04879
2022-09-05T02:45:13.856Z,26.15142
2022-09-05T02:51:12.809Z,26.19842
2022-09-05T03:02:31.941Z,26.40847
2022-09-05T03:07:32.907Z,26.47881
2022-09-05T03:12:33.892Z,26.47489
2022-09-05T03:17:34.840Z,26.57156
2022-09-05T03:22:37.125Z,26.60159
2022-09-05T03:27:38.335Z,26.69752
2022-09-05T03:32:42.179Z,26.66152
2022-09-05T03:37:43.380Z,26.73211
2022-09-05T03:42:44.416Z,26.80052
2022-09-05T03:47:45.383Z,26.85167
2022-09-05T03:57:20.297Z,26.95511
2022-09-05T04:03:43.627Z,26.96012
2022-09-05T04:13:13.398Z,27.00983
2022-09-05T04:18:18.273Z,27.08217
2022-09-05T04:23:33.959Z,27.13683
2022-09-05T04:28:34.977Z,27.14219
2022-09-05T04:33:37.274Z,27.14828
2022-09-05T04:38:38.311Z,27.21871
2022-09-05T04:43:39.250Z,27.24857
2022-09-05T04:48:40.165Z,27.31416
2022-09-05T04:53:43.757Z,27.35145
2022-09-05T05:00:54.337Z,27.42334
2022-09-05T05:16:48.017Z,27.39954
2022-09-05T05:23:07.850Z,27.39824
2022-09-05T05:28:14.964Z,27.37668
2022-09-05T05:33:25.430Z,27.3589
2022-09-05T05:38:26.525Z,27.27184
2022-09-05T05:43:27.518Z,27.24761
2022-09-05T05:48:28.529Z,27.17846
2022-09-05T05:53:42.615Z,27.18406
2022-09-05T05:58:44.367Z,27.19639
2022-09-05T06:03:45.423Z,27.18831
2022-09-05T06:10:53.891Z,27.25334
2022-09-05T06:21:34.587Z,27.01408
2022-09-05T06:27:09.262Z,26.75255
2022-09-05T06:32:10.240Z,26.72123
2022-09-05T06:37:11.206Z,26.59863
2022-09-05T06:42:33.363Z,26.42054
2022-09-05T06:47:44.103Z,26.31474
2022-09-05T06:52:45.371Z,26.25252
2022-09-05T06:57:46.345Z,25.92995
2022-09-05T07:02:58.858Z,25.48762
2022-09-05T07:08:01.446Z,25.6624
2022-09-05T07:13:27.785Z,25.6945
2022-09-05T07:18:28.727Z,25.79768
2022-09-05T07:24:05.766Z,25.73578
2022-09-05T07:29:10.710Z,25.63813
2022-09-05T07:34:20.650Z,25.5101
2022-09-05T07:39:29.423Z,25.44296
2022-09-05T07:44:30.700Z,25.34021
2022-09-05T07:49:31.760Z,25.41731
2022-09-05T07:57:00.086Z,25.37149
2022-09-05T08:02:21.827Z,25.10912
2022-09-05T08:07:47.423Z,24.97625
2022-09-05T08:13:24.426Z,24.68344
2022-09-05T08:18:28.373Z,24.63929
2022-09-05T08:23:29.285Z,24.3448
2022-09-05T08:28:38.950Z,24.06165
2022-09-05T08:33:40.735Z,23.88001
2022-09-05T08:38:41.683Z,23.77808
2022-09-05T08:46:47.735Z,23.55098
2022-09-05T08:51:54.266Z,23.19183
2022-09-05T08:56:56.483Z,22.89583
2022-09-05T09:02:45.524Z,20.02155
2022-09-05T09:07:51.376Z,20.96516
2022-09-05T09:12:53.277Z,21.17778
2022-09-05T09:17:54.224Z,21.23047
2022-09-05T09:22:55.193Z,21.44487
2022-09-05T09:27:56.112Z,19.09186
2022-09-05T09:33:48.092Z,15.98434
2022-09-05T09:38:49.203Z,16.59136
2022-09-05T09:43:52.933Z,18.55461
2022-09-05T09:48:54.215Z,16.77947
2022-09-05T09:53:55.251Z,16.76528
2022-09-05T09:58:56.240Z,16.80104
2022-09-05T10:08:03.826Z,17.19169
2022-09-05T10:15:57.946Z,18.24473
2022-09-05T10:21:16.019Z,18.32585
2022-09-05T10:26:18.202Z,18.50039
2022-09-05T10:32:24.594Z,18.61092
2022-09-05T10:40:13.188Z,18.70493
2022-09-05T10:45:14.111Z,18.67956
2022-09-05T10:50:15.185Z,18.568
2022-09-05T10:55:16.203Z,18.56672
2022-09-05T11:02:15.968Z,18.77265
2022-09-05T11:07:29.860Z,18.78484
2022-09-05T11:12:30.910Z,18.8344
2022-09-05T11:17:31.834Z,19.01368
2022-09-05T11:22:32.857Z,19.0327
2022-09-05T11:27:33.762Z,18.94121
2022-09-05T11:39:46.221Z,19.02386
2022-09-05T11:45:12.442Z,18.95386
2022-09-05T11:50:13.370Z,18.96274
2022-09-05T11:55:20.945Z,18.88777
2022-09-05T12:00:33.469Z,18.96928
2022-09-05T12:42:09.583Z,18.89126
2022-09-05T12:47:16.754Z,18.38447
2022-09-05T12:52:20.094Z,18.09351
2022-09-05T13:02:25.054Z,17.75665
2022-09-05T13:08:11.365Z,17.46588
2022-09-05T13:14:57.075Z,17.59987
2022-09-05T13:20:06.561Z,17.20285
2022-09-05T13:25:07.530Z,16.88165
2022-09-05T13:32:02.553Z,16.62664
2022-09-05T13:43:10.602Z,16.32296
2022-09-05T13:48:11.602Z,16.06888
2022-09-05T13:53:15.466Z,16.06846
2022-09-05T13:58:16.789Z,16.00238
2022-09-05T14:03:39.101Z,15.80194
2022-09-05T14:08:40.818Z,15.54626
2022-09-05T14:13:41.730Z,15.47109
2022-09-05T14:18:42.657Z,15.29181
2022-09-05T14:23:43.610Z,15.48587
2022-09-05T14:28:46.503Z,15.43258
2022-09-05T14:37:40.949Z,15.30637
2022-09-05T14:42:58.865Z,15.40051
2022-09-05T14:48:02.262Z,15.36116
2022-09-05T15:02:45.356Z,15.27495
2022-09-05T15:08:00.602Z,15.39826
2022-09-05T15:13:02.117Z,15.45713
2022-09-05T15:18:06.508Z,15.54567
2022-09-05T15:23:16.479Z,15.49514
2022-09-05T15:28:19.691Z,15.66257
2022-09-05T15:33:25.289Z,15.78042
2022-09-05T15:38:27.102Z,15.90498
2022-09-05T15:43:28.285Z,16.2134
2022-09-05T15:48:29.432Z,16.36378
2022-09-05T15:53:35.821Z,16.46773
2022-09-05T15:58:52.799Z,16.63778
2022-09-05T16:09:51.239Z,16.78951
2022-09-05T16:17:52.515Z,17.01956
2022-09-05T16:28:22.393Z,17.38754
2022-09-05T16:33:23.345Z,17.60675
2022-09-05T16:38:48.511Z,17.78864
2022-09-05T16:43:51.108Z,18.14332
2022-09-05T16:48:54.972Z,18.26653
2022-09-05T16:53:59.043Z,18.41429
2022-09-05T16:59:00.654Z,18.50835
2022-09-05T17:04:01.793Z,18.72099
2022-09-05T17:09:12.653Z,18.80874
2022-09-05T17:14:14.521Z,18.97836
2022-09-05T17:19:15.474Z,19.21217
2022-09-05T17:29:19.600Z,19.42149
2022-09-05T17:35:21.546Z,19.6232
2022-09-05T17:40:22.651Z,19.71267
2022-09-05T17:45:23.630Z,19.75169
2022-09-05T17:50:24.622Z,19.79464
2022-09-05T17:55:29.158Z,19.92054
2022-09-05T18:00:32.437Z,19.93679
2022-09-05T18:05:33.530Z,19.96284
2022-09-05T18:10:34.505Z,20.17632
2022-09-05T18:15:35.409Z,20.46853
2022-09-05T18:20:36.361Z,20.50956
2022-09-05T18:25:37.466Z,20.70296
2022-09-05T18:30:38.862Z,20.88696
2022-09-05T18:35:39.817Z,20.96992
2022-09-05T18:40:40.793Z,21.08179
2022-09-05T18:45:52.135Z,21.12033
2022-09-05T18:50:53.854Z,21.12016
2022-09-05T18:56:20.179Z,21.18457
2022-09-05T19:01:27.660Z,21.04219
2022-09-05T19:06:36.946Z,21.18291
2022-09-05T19:11:52.773Z,21.16783
2022-09-05T19:16:54.753Z,21.1802
2022-09-05T19:22:09.108Z,21.21254
2022-09-05T19:36:33.260Z,21.31868
2022-09-05T19:47:50.722Z,21.64569
2022-09-05T19:53:03.693Z,21.79808
2022-09-05T19:58:19.803Z,21.69371
2022-09-05T20:03:24.553Z,21.71967
2022-09-05T20:08:26.958Z,21.84137
2022-09-05T20:13:28.073Z,21.92287
2022-09-05T20:18:31.767Z,22.10279
2022-09-05T20:23:33.337Z,22.24002
2022-09-05T20:28:34.381Z,22.06709
2022-09-05T20:33:35.349Z,21.99636
2022-09-05T20:43:18.453Z,22.12269
2022-09-05T20:54:06.259Z,22.00873
2022-09-05T20:59:26.195Z,21.93368
2022-09-05T21:04:33.037Z,21.86154
2022-09-05T21:09:34.002Z,21.9835
2022-09-05T21:14:34.932Z,21.97947
2022-09-05T21:19:35.887Z,21.94632
2022-09-05T21:24:36.860Z,22.06224
2022-09-05T21:29:41.509Z,22.18531
2022-09-05T21:34:45.172Z,22.2621
2022-09-05T21:39:59.244Z,22.30252
2022-09-05T21:47:41.336Z,22.30011
2022-09-05T21:53:04.168Z,22.39712
2022-09-05T22:00:51.963Z,22.25413
2022-09-05T22:05:53.093Z,22.26202
2022-09-05T22:10:57.370Z,22.32494
2022-09-05T22:15:58.442Z,22.31552
2022-09-05T22:21:32.220Z,22.28358
2022-09-05T22:26:35.296Z,22.18331
2022-09-05T22:31:36.218Z,22.08837
2022-09-05T22:36:37.141Z,22.04966
2022-09-05T22:41:40.614Z,22.02281
2022-09-05T22:46:41.617Z,22.06795
2022-09-05T22:51:42.563Z,21.81497
2022-09-05T22:56:43.506Z,21.82193
2022-09-05T23:01:44.863Z,21.69394
2022-09-05T23:06:46.105Z,21.52531
2022-09-05T23:11:46.999Z,21.36458
2022-09-05T23:16:48.114Z,21.08929
2022-09-05T23:21:49.001Z,20.79554
2022-09-05T23:26:50.378Z,20.79136
2022-09-05T23:31:51.305Z,20.60507
2022-09-05T23:47:01.480Z,20.04491
2022-09-05T23:52:03.471Z,20.11147
2022-09-05T23:57:04.484Z,20.12637
